Time;durP1;ratioP1;P1;durP2;ratioP2;P2;SDS_P1;SDS_P2;PMS_P1;PMS_P2;Temp;Humidity;BMP_temperature;BMP_pressure;BME280_temperature;BME280_humidity;BME280_pressure;Samples;Min_cycle;Max_cycle;Signal;HPM_P1;HPM_P2
2023/12/27 00:00:48;;;;;;;8.93;6.20;;;;;;;0.85;62.44;97856.75;5075165;28;20044;-67
2023/12/27 00:03:13;;;;;;;10.48;6.72;;;;;;;0.84;62.87;97847.16;5074821;28;20032;-66
2023/12/27 00:05:39;;;;;;;10.23;6.85;;;;;;;0.86;61.78;97842.63;5075441;28;20051;-66
2023/12/27 00:08:05;;;;;;;10.63;6.55;;;;;;;0.86;62.33;97842.63;5080590;28;20050;-67
2023/12/27 00:10:31;;;;;;;9.95;6.68;;;;;;;0.59;62.27;97792.78;5094522;28;20521;-66
2023/12/27 00:12:56;;;;;;;9.73;6.50;;;;;;;0.94;61.79;97855.25;5085960;28;20033;-67
2023/12/27 00:15:22;;;;;;;10.27;6.78;;;;;;;0.96;62.48;97850.72;5075078;28;20112;-67
2023/12/27 00:17:47;;;;;;;9.80;6.82;;;;;;;0.96;62.33;97850.72;5080462;28;20059;-67
2023/12/27 00:20:13;;;;;;;11.57;7.38;;;;;;;0.96;62.35;97848.91;5094537;28;20032;-65
2023/12/27 00:22:39;;;;;;;12.98;6.57;;;;;;;0.96;62.62;97837.53;5089994;28;20063;-66
2023/12/27 00:25:04;;;;;;;10.32;6.38;;;;;;;1.03;61.92;97843.19;5073623;28;20118;-67
2023/12/27 00:27:30;;;;;;;11.95;7.22;;;;;;;0.96;62.63;97827.00;5076186;28;20033;-65
2023/12/27 00:29:56;;;;;;;11.07;7.25;;;;;;;1.03;62.12;97843.19;5094849;28;20044;-67
2023/12/27 00:32:22;;;;;;;12.50;7.10;;;;;;;1.01;62.17;97840.66;5094301;28;20145;-66
2023/12/27 00:34:48;;;;;;;11.05;7.72;;;;;;;1.03;62.50;97835.28;5089610;28;20056;-66
2023/12/27 00:37:15;;;;;;;11.13;6.97;;;;;;;1.04;62.12;97834.34;5077180;28;20032;-65
2023/12/27 00:39:41;;;;;;;11.25;7.10;;;;;;;0.98;62.61;97830.34;5094988;28;20105;-67
2023/12/27 00:42:06;;;;;;;10.43;7.30;;;;;;;0.96;62.58;97821.72;5092324;28;20035;-66
2023/12/27 00:44:32;;;;;;;11.13;7.30;;;;;;;1.00;62.77;97829.31;5075092;28;20037;-67
2023/12/27 00:46:57;;;;;;;11.77;7.47;;;;;;;1.03;62.07;97822.94;5074418;28;20064;-66
2023/12/27 00:49:23;;;;;;;11.05;7.65;;;;;;;0.99;62.43;97827.63;5074062;28;20067;-68
2023/12/27 00:51:48;;;;;;;11.88;7.80;;;;;;;0.79;62.72;97796.63;5075678;28;20024;-65
2023/12/27 00:54:14;;;;;;;11.35;7.25;;;;;;;0.95;62.49;97820.88;5094470;28;20093;-64
2023/12/27 00:56:39;;;;;;;11.45;7.40;;;;;;;0.97;62.68;97818.13;5089607;28;20017;-66
2023/12/27 00:59:06;;;;;;;11.63;7.43;;;;;;;0.99;62.48;97830.25;5073378;28;20073;-66
2023/12/27 01:01:32;;;;;;;11.60;7.43;;;;;;;0.97;62.62;97824.25;5073505;28;20367;-67
2023/12/27 01:03:57;;;;;;;11.80;7.75;;;;;;;1.03;62.19;97835.28;5073385;28;20021;-65
2023/12/27 01:06:23;;;;;;;14.18;8.43;;;;;;;1.00;62.47;97825.81;5074583;28;20044;-65
2023/12/27 01:08:48;;;;;;;14.43;8.68;;;;;;;0.87;62.93;97806.59;5092426;28;20055;-65
2023/12/27 01:11:14;;;;;;;13.93;8.90;;;;;;;0.98;62.81;97831.22;5094122;28;20434;-65
2023/12/27 01:13:39;;;;;;;15.13;9.63;;;;;;;0.99;62.85;97824.97;5083812;28;20035;-65
2023/12/27 01:16:05;;;;;;;13.00;9.02;;;;;;;0.94;62.83;97827.09;5077177;28;20076;-66
2023/12/27 01:18:31;;;;;;;14.73;9.32;;;;;;;0.97;62.90;97834.81;5073890;28;20141;-67
2023/12/27 01:20:57;;;;;;;12.32;7.63;;;;;;;1.00;63.05;97820.53;5092229;28;20358;-66
2023/12/27 01:23:22;;;;;;;11.77;8.00;;;;;;;0.99;63.29;97821.50;5076168;28;20051;-66
2023/12/27 01:25:48;;;;;;;12.63;7.93;;;;;;;0.67;62.62;97772.84;5073006;28;20028;-65
2023/12/27 01:28:14;;;;;;;13.00;8.57;;;;;;;0.93;62.97;97820.13;5073516;28;20025;-68
2023/12/27 01:30:39;;;;;;;13.43;8.00;;;;;;;0.93;63.04;97809.59;5071590;28;20052;-67
2023/12/27 01:33:05;;;;;;;12.43;7.95;;;;;;;1.03;63.08;97827.38;5073149;28;20040;-65
2023/12/27 01:35:30;;;;;;;11.23;7.60;;;;;;;0.94;63.06;97808.66;5073599;28;20451;-67
2023/12/27 01:37:56;;;;;;;12.52;8.38;;;;;;;0.97;62.90;97816.34;5089362;28;20465;-66
2023/12/27 01:40:22;;;;;;;12.73;8.25;;;;;;;0.96;63.34;97812.00;5091783;28;20169;-65
2023/12/27 01:42:47;;;;;;;13.32;8.20;;;;;;;1.00;62.88;97831.94;5073579;28;20028;-65
2023/12/27 01:45:13;;;;;;;11.75;7.85;;;;;;;0.98;63.12;97825.94;5073153;28;20032;-66
2023/12/27 01:47:38;;;;;;;13.00;7.82;;;;;;;0.94;63.15;97816.56;5072998;28;20085;-66
2023/12/27 01:50:08;;;;;;;12.18;7.85;;;;;;;0.99;63.23;97817.09;5071977;28;20020;-66
2023/12/27 01:52:33;;;;;;;11.68;7.57;;;;;;;1.06;63.34;97837.69;5072565;28;20029;-66
2023/12/27 01:54:59;;;;;;;12.90;7.72;;;;;;;1.10;63.48;97823.34;5074086;28;20051;-66
2023/12/27 01:57:24;;;;;;;13.20;8.18;;;;;;;1.10;63.60;97825.97;5090386;28;20354;-66
2023/12/27 01:59:50;;;;;;;15.00;8.45;;;;;;;1.01;63.51;97814.31;5088122;28;20028;-66
2023/12/27 02:02:15;;;;;;;12.63;8.45;;;;;;;1.09;63.54;97825.16;5076954;28;20024;-67
2023/12/27 02:04:41;;;;;;;11.93;8.02;;;;;;;1.11;63.59;97832.94;5073414;28;20032;-67
2023/12/27 02:07:07;;;;;;;12.45;8.93;;;;;;;1.09;63.60;97816.38;5079845;28;20096;-67
2023/12/27 02:09:34;;;;;;;11.68;8.15;;;;;;;1.09;63.61;97821.66;5093214;28;20089;-66
2023/12/27 02:11:59;;;;;;;13.80;8.80;;;;;;;1.11;63.65;97820.59;5092080;28;20061;-67
2023/12/27 02:14:25;;;;;;;13.55;8.77;;;;;;;1.07;63.48;97818.28;5092627;28;20065;-66
2023/12/27 02:16:51;;;;;;;14.80;8.63;;;;;;;1.04;63.42;97808.00;5092090;28;20434;-67
2023/12/27 02:19:21;;;;;;;14.00;8.25;;;;;;;1.12;63.53;97816.16;5077937;28;20106;-67
2023/12/27 02:21:49;;;;;;;13.15;8.45;;;;;;;1.06;63.41;97821.88;5072617;28;20120;-66
2023/12/27 02:24:19;;;;;;;15.20;8.32;;;;;;;1.00;63.81;97825.81;5073650;28;20028;-66
2023/12/27 02:26:45;;;;;;;15.13;8.88;;;;;;;0.89;64.04;97821.31;5075439;28;20474;-66
2023/12/27 02:29:11;;;;;;;13.68;8.82;;;;;;;0.93;63.87;97824.59;5092814;28;20024;-65
2023/12/27 02:31:37;;;;;;;15.27;8.75;;;;;;;0.94;63.91;97832.38;5092466;28;20040;-67
2023/12/27 02:34:02;;;;;;;12.13;8.15;;;;;;;0.87;64.05;97822.41;5082156;28;20028;-67
2023/12/27 02:36:28;;;;;;;13.57;8.35;;;;;;;0.90;64.22;97836.19;5072685;28;20075;-66
2023/12/27 02:38:53;;;;;;;13.25;8.25;;;;;;;0.85;64.01;97818.09;5072523;28;20461;-66
2023/12/27 02:41:19;;;;;;;15.50;8.90;;;;;;;0.85;64.55;97822.50;5089806;28;20032;-67
2023/12/27 02:43:44;;;;;;;13.35;8.20;;;;;;;0.91;63.87;97835.22;5092573;28;20031;-66
2023/12/27 02:46:10;;;;;;;15.43;9.00;;;;;;;0.89;64.14;97823.97;5092701;28;20110;-67
2023/12/27 02:48:35;;;;;;;13.45;8.88;;;;;;;0.95;64.10;97828.78;5082938;28;20100;-65
2023/12/27 02:51:01;;;;;;;14.73;9.30;;;;;;;0.92;64.04;97812.38;5071239;28;20117;-66
2023/12/27 02:53:26;;;;;;;13.95;9.48;;;;;;;0.89;63.76;97826.59;5071910;28;20359;-66
2023/12/27 02:55:52;;;;;;;14.85;8.85;;;;;;;0.82;63.86;97804.28;5072506;28;20036;-65
2023/12/27 02:58:17;;;;;;;15.63;9.05;;;;;;;0.89;64.07;97815.22;5083628;28;20089;-67
2023/12/27 03:00:46;;;;;;;15.68;10.02;;;;;;;0.93;64.10;97832.50;5089700;28;20031;-66
2023/12/27 03:03:12;;;;;;;16.05;10.63;;;;;;;0.92;64.57;97825.53;5091881;28;20036;-67
2023/12/27 03:05:38;;;;;;;14.82;9.45;;;;;;;0.91;64.17;97822.06;5091918;28;20366;-66
2023/12/27 03:08:04;;;;;;;14.88;10.00;;;;;;;0.93;64.19;97828.03;5069128;28;20035;-66
2023/12/27 03:10:29;;;;;;;15.45;10.13;;;;;;;0.76;64.32;97795.03;5091901;28;20024;-67
2023/12/27 03:12:54;;;;;;;13.48;9.35;;;;;;;0.97;64.26;97823.41;5091295;28;20439;-65
2023/12/27 03:15:20;;;;;;;14.85;9.98;;;;;;;0.94;64.56;97819.19;5090402;28;20028;-67
2023/12/27 03:17:45;;;;;;;16.13;9.70;;;;;;;0.96;64.53;97817.28;5090577;28;20031;-67
2023/12/27 03:20:11;;;;;;;16.05;9.52;;;;;;;1.04;64.04;97818.53;5090895;28;20036;-66
2023/12/27 03:22:36;;;;;;;16.05;10.45;;;;;;;1.03;64.29;97822.13;5091265;28;20020;-66
2023/12/27 03:25:02;;;;;;;16.33;9.85;;;;;;;0.96;64.15;97813.81;5086742;28;20036;-67
2023/12/27 03:27:32;;;;;;;14.80;10.23;;;;;;;1.02;64.21;97828.34;5092100;28;20051;-67
2023/12/27 03:29:57;;;;;;;15.65;9.63;;;;;;;0.95;64.30;97818.22;5090539;28;20419;-66
2023/12/27 03:32:24;;;;;;;13.05;8.45;;;;;;;0.98;64.48;97823.31;5090336;28;20032;-63
2023/12/27 03:34:50;;;;;;;13.88;8.73;;;;;;;0.99;64.56;97832.03;5090968;28;20032;-66
2023/12/27 03:37:16;;;;;;;14.82;9.30;;;;;;;0.93;64.72;97816.69;5091365;28;20154;-67
2023/12/27 03:39:43;;;;;;;13.93;9.38;;;;;;;0.94;64.88;97818.38;5074623;28;20045;-67
2023/12/27 03:42:09;;;;;;;13.73;9.23;;;;;;;1.04;64.87;97818.53;5071814;28;20025;-67
2023/12/27 03:44:35;;;;;;;13.35;9.20;;;;;;;1.11;64.82;97831.16;5074445;28;20028;-70
2023/12/27 03:47:01;;;;;;;14.32;9.25;;;;;;;1.10;64.61;97828.59;5088553;28;20086;-65
2023/12/27 03:49:26;;;;;;;13.02;8.70;;;;;;;1.12;64.58;97821.44;5083014;28;20039;-65
2023/12/27 03:51:52;;;;;;;12.30;8.32;;;;;;;1.12;64.58;97824.06;5084779;28;20115;-65
2023/12/27 03:54:18;;;;;;;11.73;8.00;;;;;;;1.13;64.13;97823.09;5094480;28;20107;-66
2023/12/27 03:56:46;;;;;;;12.88;8.32;;;;;;;1.16;64.17;97827.31;5095826;28;20276;-67
2023/12/27 03:59:12;;;;;;;13.20;8.40;;;;;;;1.14;63.89;97833.56;5095860;28;20407;-69
2023/12/27 04:01:37;;;;;;;16.38;8.63;;;;;;;1.14;64.02;97824.78;5095404;28;20058;-67
2023/12/27 04:04:03;;;;;;;11.63;7.97;;;;;;;1.05;64.16;97820.22;5095629;28;20114;-65
2023/12/27 04:06:28;;;;;;;12.85;8.40;;;;;;;1.09;63.73;97819.03;5096148;28;20048;-67
2023/12/27 04:08:54;;;;;;;11.50;7.15;;;;;;;1.07;64.04;97826.19;5095677;28;20439;-69
2023/12/27 04:11:19;;;;;;;16.85;7.88;;;;;;;1.06;63.79;97817.44;5095653;28;20443;-69
2023/12/27 04:13:45;;;;;;;12.10;8.18;;;;;;;1.06;63.64;97819.25;5090354;28;20040;-69
2023/12/27 04:16:10;;;;;;;11.80;7.55;;;;;;;1.05;63.87;97823.66;5078729;28;20040;-66
2023/12/27 04:18:36;;;;;;;14.25;7.45;;;;;;;1.00;63.99;97817.91;5094037;28;20094;-68
2023/12/27 04:21:02;;;;;;;15.88;8.43;;;;;;;1.07;64.01;97834.13;5085906;28;20443;-69
2023/12/27 04:23:27;;;;;;;12.27;8.02;;;;;;;1.07;64.05;97831.47;5086090;28;20331;-67
2023/12/27 04:25:53;;;;;;;13.48;7.80;;;;;;;1.06;63.96;97837.69;5088073;28;20024;-69
2023/12/27 04:28:18;;;;;;;12.45;7.75;;;;;;;0.97;63.77;97821.63;5075408;28;20028;-68
2023/12/27 04:30:44;;;;;;;14.82;8.95;;;;;;;1.07;64.18;97832.31;5076839;28;20462;-70
2023/12/27 04:33:09;;;;;;;14.02;9.15;;;;;;;1.05;64.10;97841.28;5081763;28;20119;-70
2023/12/27 04:35:35;;;;;;;13.00;8.40;;;;;;;1.04;63.96;97840.44;5079386;28;20077;-68
2023/12/27 04:38:00;;;;;;;14.05;8.48;;;;;;;1.07;64.17;97844.66;5090424;28;20088;-68
2023/12/27 04:40:26;;;;;;;13.27;8.15;;;;;;;1.05;63.91;97831.56;5075380;28;20074;-65
2023/12/27 04:42:52;;;;;;;17.85;8.85;;;;;;;1.07;63.72;97836.75;5076050;28;20371;-69
2023/12/27 04:45:18;;;;;;;15.70;8.80;;;;;;;1.02;63.60;97838.88;5074721;28;20032;-68
2023/12/27 04:47:44;;;;;;;16.05;8.70;;;;;;;0.89;64.09;97821.31;5075515;28;20332;-69
2023/12/27 04:50:09;;;;;;;14.75;8.75;;;;;;;0.90;64.23;97832.72;5091091;28;20035;-67
2023/12/27 04:52:35;;;;;;;14.48;8.35;;;;;;;0.80;64.21;97812.28;5088070;28;20028;-67
2023/12/27 04:55:00;;;;;;;15.85;8.57;;;;;;;0.87;64.51;97825.88;5086409;28;20039;-67
2023/12/27 04:57:26;;;;;;;15.23;8.68;;;;;;;0.80;64.69;97804.41;5094624;28;20439;-68
2023/12/27 04:59:51;;;;;;;16.33;9.15;;;;;;;0.69;64.50;97780.66;5093139;28;20064;-69
2023/12/27 05:02:17;;;;;;;16.80;8.57;;;;;;;0.96;64.46;97812.00;5094035;28;20043;-71
2023/12/27 05:04:42;;;;;;;12.35;8.38;;;;;;;0.91;64.42;97813.31;5093623;28;20181;-68
2023/12/27 05:07:08;;;;;;;13.05;8.30;;;;;;;0.96;64.57;97814.63;5094090;28;20028;-69
2023/12/27 05:09:34;;;;;;;15.65;8.50;;;;;;;1.00;64.75;97813.50;5093450;28;20040;-69
2023/12/27 05:11:59;;;;;;;11.63;7.93;;;;;;;1.00;64.36;97810.84;5076240;28;20350;-69
2023/12/27 05:14:25;;;;;;;13.23;8.32;;;;;;;1.00;64.09;97810.00;5094384;28;20149;-69
2023/12/27 05:16:54;;;;;;;13.73;7.60;;;;;;;1.00;64.31;97816.13;5093447;28;20461;-69
2023/12/27 05:19:20;;;;;;;13.43;8.35;;;;;;;1.06;64.24;97821.88;5084390;28;20025;-69
2023/12/27 05:21:46;;;;;;;15.57;8.95;;;;;;;1.07;64.19;97820.94;5084698;28;20353;-68
2023/12/27 05:24:11;;;;;;;13.10;8.18;;;;;;;1.05;64.25;97809.66;5085501;28;20510;-67
2023/12/27 05:26:37;;;;;;;12.40;8.63;;;;;;;1.04;64.42;97822.00;5074275;28;20532;-69
2023/12/27 05:29:03;;;;;;;13.73;8.88;;;;;;;1.03;64.39;97806.31;5091784;28;20020;-69
2023/12/27 05:31:30;;;;;;;13.00;8.35;;;;;;;0.97;64.23;97805.81;5088296;28;20033;-69
2023/12/27 05:33:55;;;;;;;14.32;8.63;;;;;;;0.93;64.17;97809.59;5073495;28;20367;-70
2023/12/27 05:36:21;;;;;;;13.07;8.82;;;;;;;0.99;64.03;97822.34;5087508;28;20032;-68
2023/12/27 05:38:47;;;;;;;14.05;8.65;;;;;;;0.90;64.37;97816.91;5114191;28;20362;-68
2023/12/27 05:41:13;;;;;;;16.23;8.60;;;;;;;0.96;64.38;97843.63;5092480;28;20032;-69
2023/12/27 05:43:38;;;;;;;12.55;8.85;;;;;;;0.91;64.49;97827.31;5091685;28;20036;-70
2023/12/27 05:46:04;;;;;;;12.82;8.40;;;;;;;0.96;64.64;97825.19;5077501;28;20029;-69
2023/12/27 05:48:30;;;;;;;13.63;8.50;;;;;;;0.93;64.46;97821.94;5073156;28;20029;-69
2023/12/27 05:50:56;;;;;;;15.05;9.05;;;;;;;0.99;64.39;97821.50;5080115;28;20107;-69
2023/12/27 05:53:21;;;;;;;13.02;7.82;;;;;;;0.96;64.71;97811.19;5081696;28;20081;-71
2023/12/27 05:55:47;;;;;;;14.68;9.00;;;;;;;0.96;64.44;97812.00;5070601;28;20075;-68
2023/12/27 05:58:12;;;;;;;12.95;8.80;;;;;;;1.01;64.48;97832.75;5075596;28;20027;-67
2023/12/27 06:00:38;;;;;;;13.23;8.38;;;;;;;1.02;64.15;97836.25;5083556;28;20105;-67
2023/12/27 06:03:03;;;;;;;13.60;8.90;;;;;;;1.03;64.26;97836.13;5092182;28;20104;-67
2023/12/27 06:05:29;;;;;;;12.80;8.07;;;;;;;1.05;63.94;97839.47;5091953;28;20031;-64
2023/12/27 06:07:54;;;;;;;18.45;8.95;;;;;;;1.04;63.97;97843.06;5093029;28;20106;-66
2023/12/27 06:10:20;;;;;;;15.10;9.25;;;;;;;1.05;63.83;97846.56;5074283;28;20355;-66
2023/12/27 06:12:46;;;;;;;13.68;9.02;;;;;;;0.97;64.40;97840.06;5073001;28;20040;-68
2023/12/27 06:15:12;;;;;;;16.52;8.65;;;;;;;1.03;64.74;97854.56;5092500;28;20044;-68
2023/12/27 06:17:37;;;;;;;15.52;9.38;;;;;;;0.99;64.49;97848.69;5091336;28;20023;-67
2023/12/27 06:20:04;;;;;;;17.02;8.40;;;;;;;1.05;64.67;97857.09;5092950;28;20024;-65
2023/12/27 06:22:30;;;;;;;17.63;9.70;;;;;;;1.11;64.80;97856.66;5093304;28;20051;-67
2023/12/27 06:24:56;;;;;;;17.30;10.35;;;;;;;1.11;64.27;97864.56;5092769;28;20020;-66
2023/12/27 06:27:22;;;;;;;18.08;9.65;;;;;;;1.13;64.33;97863.50;5093332;28;20073;-66
2023/12/27 06:29:47;;;;;;;15.00;9.18;;;;;;;1.17;64.33;97871.19;5093288;28;20062;-66
2023/12/27 06:32:13;;;;;;;18.27;9.70;;;;;;;1.21;64.23;97854.19;5092456;28;20043;-67
2023/12/27 06:34:38;;;;;;;17.52;10.07;;;;;;;1.19;64.09;97856.91;5092681;28;20412;-67
2023/12/27 06:37:04;;;;;;;15.70;9.15;;;;;;;1.26;64.01;97866.06;5093202;28;20417;-66
2023/12/27 06:39:30;;;;;;;19.52;9.80;;;;;;;1.28;64.30;97864.16;5093368;28;20039;-67
2023/12/27 06:41:55;;;;;;;16.55;9.63;;;;;;;1.23;64.28;97858.41;5092261;28;20066;-67
2023/12/27 06:44:21;;;;;;;16.75;10.10;;;;;;;1.15;64.08;97847.56;5092324;28;20040;-66
2023/12/27 06:46:47;;;;;;;16.38;10.07;;;;;;;1.25;64.03;97845.94;5092798;28;20036;-66
2023/12/27 06:49:12;;;;;;;15.15;9.13;;;;;;;1.39;63.52;97873.91;5092899;28;20036;-68
2023/12/27 06:51:38;;;;;;;16.63;9.68;;;;;;;1.42;63.63;97864.91;5092465;28;20357;-66
2023/12/27 06:54:03;;;;;;;19.33;10.02;;;;;;;1.46;63.62;97874.31;5092696;28;20028;-66
2023/12/27 06:56:29;;;;;;;15.95;9.38;;;;;;;1.38;63.79;97868.75;5092128;28;20024;-67
2023/12/27 06:58:54;;;;;;;22.02;9.88;;;;;;;1.48;63.65;97875.03;5093074;28;20397;-66
2023/12/27 07:01:20;;;;;;;16.48;10.55;;;;;;;1.51;63.18;97889.75;5091596;28;20359;-67
2023/12/27 07:03:45;;;;;;;15.48;9.85;;;;;;;1.28;63.21;97840.44;5092479;28;20039;-66
2023/12/27 07:06:11;;;;;;;18.10;9.77;;;;;;;1.53;63.43;97883.44;5092594;28;20039;-67
2023/12/27 07:08:36;;;;;;;17.20;10.02;;;;;;;1.55;62.77;97880.66;5092721;28;20053;-66
2023/12/27 07:11:02;;;;;;;16.38;9.98;;;;;;;1.55;63.62;97883.28;5092592;28;20046;-67
2023/12/27 07:13:28;;;;;;;20.15;11.27;;;;;;;1.55;63.37;97878.88;5091531;28;20391;-66
2023/12/27 07:15:53;;;;;;;15.82;10.23;;;;;;;1.59;63.38;97887.41;5092313;28;20318;-66
2023/12/27 07:18:19;;;;;;;17.00;10.23;;;;;;;1.61;63.35;97896.06;5092512;28;20026;-68
2023/12/27 07:20:45;;;;;;;19.15;10.55;;;;;;;1.69;62.97;97892.84;5092268;28;20067;-67
2023/12/27 07:23:11;;;;;;;16.45;10.43;;;;;;;1.70;62.98;97892.72;5091827;28;20442;-66
2023/12/27 07:25:37;;;;;;;19.27;11.27;;;;;;;1.70;62.93;97878.69;5091074;28;20035;-67
2023/12/27 07:28:03;;;;;;;16.40;10.43;;;;;;;1.72;62.45;97893.44;5093842;28;20452;-66
2023/12/27 07:30:29;;;;;;;20.35;12.07;;;;;;;1.68;62.57;97896.41;5096070;28;20127;-67
2023/12/27 07:32:55;;;;;;;18.70;11.82;;;;;;;1.60;62.89;97904.06;5096479;28;20438;-66
2023/12/27 07:35:21;;;;;;;21.02;12.07;;;;;;;1.50;63.32;97898.63;5095911;28;20039;-65
2023/12/27 07:37:46;;;;;;;20.17;11.55;;;;;;;1.50;63.30;97898.63;5095879;28;20366;-67
2023/12/27 07:40:14;;;;;;;18.17;11.50;;;;;;;1.48;63.20;97892.63;5095971;28;20028;-67
2023/12/27 07:42:40;;;;;;;17.42;10.88;;;;;;;1.48;62.88;97893.50;5095614;28;20042;-67
2023/12/27 07:45:06;;;;;;;16.83;11.10;;;;;;;1.65;63.03;97901.91;5095731;28;20448;-66
2023/12/27 07:47:32;;;;;;;18.52;10.93;;;;;;;1.77;62.84;97911.56;5095573;28;20055;-66
2023/12/27 07:49:58;;;;;;;17.38;10.80;;;;;;;1.90;62.67;97916.75;5095971;28;20115;-66
2023/12/27 07:52:24;;;;;;;19.10;11.18;;;;;;;1.63;62.45;97867.75;5095332;28;20336;-66
2023/12/27 07:54:49;;;;;;;18.52;10.93;;;;;;;1.98;61.95;97918.81;5096012;28;20039;-66
2023/12/27 07:57:15;;;;;;;21.50;11.13;;;;;;;2.06;62.00;97919.06;5096029;28;20035;-68
2023/12/27 07:59:40;;;;;;;19.55;11.57;;;;;;;2.10;62.01;97924.97;5095556;28;20027;-67
2023/12/27 08:02:06;;;;;;;19.50;11.60;;;;;;;1.82;61.92;97874.28;5077769;28;20096;-66
2023/12/27 08:04:31;;;;;;;24.48;12.45;;;;;;;2.03;61.97;97929.84;5095962;28;20043;-66
2023/12/27 08:06:56;;;;;;;24.90;12.68;;;;;;;1.93;62.13;97916.50;5095658;28;20024;-64
2023/12/27 08:09:22;;;;;;;22.65;12.45;;;;;;;2.03;61.93;97936.94;5095188;28;20092;-66
2023/12/27 08:11:48;;;;;;;22.42;13.00;;;;;;;1.92;62.28;97929.81;5095642;28;20035;-66
2023/12/27 08:14:13;;;;;;;26.15;12.38;;;;;;;2.00;62.29;97938.00;5095796;28;20031;-65
2023/12/27 08:16:39;;;;;;;25.98;12.30;;;;;;;2.00;62.03;97948.56;5095628;28;20028;-64
2023/12/27 08:19:04;;;;;;;22.50;12.30;;;;;;;2.00;62.16;97949.41;5095273;28;20446;-67
2023/12/27 08:21:30;;;;;;;25.20;12.48;;;;;;;2.01;61.91;97944.97;5095497;28;20024;-66
2023/12/27 08:23:55;;;;;;;24.05;12.60;;;;;;;2.03;62.65;97950.97;5095798;28;20059;-66
2023/12/27 08:26:21;;;;;;;20.80;11.40;;;;;;;2.05;61.89;97951.69;5095180;28;20085;-66
2023/12/27 08:28:46;;;;;;;20.23;12.70;;;;;;;2.09;62.06;97955.78;5095023;28;20311;-66
2023/12/27 08:31:13;;;;;;;24.50;13.95;;;;;;;2.11;62.22;97955.69;5094816;28;20163;-67
2023/12/27 08:33:39;;;;;;;20.63;12.13;;;;;;;2.10;62.06;97956.63;5095838;28;20450;-67
2023/12/27 08:36:05;;;;;;;19.08;11.57;;;;;;;2.14;61.78;97966.84;5095236;28;20024;-67
2023/12/27 08:38:32;;;;;;;20.25;11.75;;;;;;;1.85;61.65;97909.19;5094168;28;20028;-68
2023/12/27 08:40:58;;;;;;;24.42;12.43;;;;;;;2.17;61.51;97954.34;5094020;28;20111;-65
2023/12/27 08:43:29;;;;;;;20.77;11.90;;;;;;;2.18;61.61;97962.16;5095113;28;20403;-67
2023/12/27 08:45:55;;;;;;;19.45;12.57;;;;;;;2.24;61.60;97956.41;5094828;28;20047;-67
2023/12/27 08:48:20;;;;;;;21.02;11.63;;;;;;;2.20;61.46;97952.31;5093880;28;20097;-69
2023/12/27 08:50:48;;;;;;;17.77;11.43;;;;;;;2.30;61.40;97955.09;5094142;28;20346;-67
2023/12/27 08:53:13;;;;;;;17.38;10.93;;;;;;;2.41;61.18;97963.06;5094497;28;20051;-66
2023/12/27 08:55:39;;;;;;;18.95;11.73;;;;;;;2.36;60.88;97938.78;5094482;28;20447;-67
2023/12/27 08:58:05;;;;;;;18.52;11.70;;;;;;;2.53;60.56;97958.63;5094011;28;20110;-66
2023/12/27 09:00:30;;;;;;;20.30;10.65;;;;;;;2.55;60.19;97958.50;5094013;28;20098;-67
2023/12/27 09:02:56;;;;;;;18.20;9.63;;;;;;;2.57;60.09;97962.72;5094688;28;20032;-68
2023/12/27 09:05:21;;;;;;;15.60;9.55;;;;;;;2.30;59.77;97923.41;5093788;28;20089;-69
2023/12/27 09:07:47;;;;;;;14.68;8.07;;;;;;;2.57;59.44;97968.00;5092760;28;20336;-68
2023/12/27 09:10:12;;;;;;;10.10;6.38;;;;;;;2.50;58.79;97965.94;5093844;28;20043;-65
2023/12/27 09:12:41;;;;;;;11.00;6.65;;;;;;;2.51;58.98;97975.56;5093424;28;20024;-68
2023/12/27 09:15:08;;;;;;;8.43;5.72;;;;;;;2.40;58.87;97974.56;5094522;28;20119;-68
2023/12/27 09:17:34;;;;;;;8.48;5.25;;;;;;;2.22;58.44;97966.25;5094414;28;20039;-67
2023/12/27 09:20:00;;;;;;;9.18;6.05;;;;;;;1.98;58.92;97934.66;5093932;28;20070;-67
2023/12/27 09:22:26;;;;;;;10.15;6.03;;;;;;;2.26;58.79;97982.72;5094231;28;20086;-67
2023/12/27 09:24:51;;;;;;;8.93;6.03;;;;;;;2.26;58.50;97980.06;5093895;28;20028;-68
2023/12/27 09:27:17;;;;;;;10.77;6.03;;;;;;;2.18;58.97;97993.84;5093005;28;20106;-67
2023/12/27 09:29:44;;;;;;;10.77;5.78;;;;;;;2.21;58.47;97982.22;5093926;28;20113;-64
2023/12/27 09:32:11;;;;;;;9.18;5.20;;;;;;;2.12;58.32;97981.94;5093809;28;20043;-66
2023/12/27 09:34:36;;;;;;;6.60;4.60;;;;;;;2.13;58.15;97988.09;5093994;28;20024;-67
2023/12/27 09:37:03;;;;;;;9.13;4.75;;;;;;;2.13;58.38;97988.09;5093820;28;20459;-68
2023/12/27 09:39:29;;;;;;;7.07;4.65;;;;;;;1.79;58.14;97941.31;5093336;28;20035;-68
2023/12/27 09:41:55;;;;;;;8.73;5.68;;;;;;;2.04;58.61;97981.69;5093737;28;20447;-67
2023/12/27 09:44:21;;;;;;;10.45;5.40;;;;;;;2.02;58.38;97978.34;5093592;28;20168;-66
2023/12/27 09:46:47;;;;;;;10.02;6.20;;;;;;;1.99;58.10;97984.66;5093412;28;20054;-67
2023/12/27 09:49:12;;;;;;;10.10;5.45;;;;;;;1.89;58.49;97972.28;5093629;28;20030;-66
2023/12/27 09:51:39;;;;;;;8.32;5.30;;;;;;;1.94;58.21;97981.53;5081458;28;20024;-66
2023/12/27 09:54:05;;;;;;;8.40;4.95;;;;;;;1.81;57.90;97959.66;5084085;28;20486;-68
2023/12/27 09:56:32;;;;;;;8.57;5.13;;;;;;;1.95;58.16;97971.84;5091375;28;20032;-67
2023/12/27 09:59:06;;;;;;;5.70;4.05;;;;;;;1.97;58.10;97972.56;5088934;28;20031;-68
2023/12/27 10:01:37;;;;;;;8.23;5.13;;;;;;;1.89;57.85;97954.66;5093171;28;20340;-68
2023/12/27 10:04:35;;;;;;;8.10;4.30;;;;;;;2.11;58.11;97982.91;5091522;28;20530;-67
2023/12/27 10:07:02;;;;;;;7.60;4.75;;;;;;;2.02;57.96;97983.59;5033075;28;20362;-69
2023/12/27 10:09:28;;;;;;;12.25;4.68;;;;;;;1.99;57.96;97981.22;5092858;28;20031;-70
2023/12/27 10:11:55;;;;;;;5.45;3.83;;;;;;;1.98;57.47;97979.53;5091262;28;20046;-68
2023/12/27 10:14:22;;;;;;;7.78;4.57;;;;;;;2.03;57.50;97989.72;5092493;28;20028;-67
2023/12/27 10:16:48;;;;;;;6.68;4.63;;;;;;;2.04;57.79;97992.25;5090959;28;20382;-65
2023/12/27 10:19:58;;;;;;;7.30;4.93;;;;;;;2.17;58.39;97997.44;5081926;28;20028;-63
2023/12/27 10:22:24;;;;;;;7.90;4.97;;;;;;;2.02;58.15;97983.59;5083683;28;20477;-65
2023/12/27 10:24:49;;;;;;;12.32;5.97;;;;;;;2.08;58.50;97982.31;5072304;28;20032;-66
2023/12/27 10:27:15;;;;;;;10.70;6.90;;;;;;;2.22;58.22;98005.03;5083516;28;20505;-65
2023/12/27 10:29:47;;;;;;;12.20;7.43;;;;;;;2.31;58.39;97996.41;5077617;28;20486;-63
2023/12/27 10:32:14;;;;;;;13.73;8.27;;;;;;;2.24;58.72;97992.56;5083118;28;20044;-65
2023/12/27 10:34:41;;;;;;;12.68;7.13;;;;;;;2.00;58.55;97967.06;5080887;28;20036;-68
2023/12/27 10:37:11;;;;;;;10.05;6.95;;;;;;;2.20;59.06;98012.22;5071925;28;20035;-64
2023/12/27 10:39:45;;;;;;;12.70;6.95;;;;;;;2.11;59.24;98013.75;5079760;28;20032;-68
2023/12/27 10:42:13;;;;;;;11.95;6.80;;;;;;;1.99;59.82;98010.25;5072621;28;20021;-69
2023/12/27 10:44:38;;;;;;;10.70;6.68;;;;;;;1.97;59.42;98012.16;5097861;28;20358;-62
2023/12/27 10:47:08;;;;;;;13.82;8.23;;;;;;;1.96;59.98;98027.13;5083037;28;20029;-64
2023/12/27 10:49:35;;;;;;;13.65;8.10;;;;;;;1.92;60.31;98024.81;5072557;28;20056;-62
2023/12/27 10:52:02;;;;;;;16.13;10.23;;;;;;;1.88;60.10;98023.38;5089498;28;20043;-62
2023/12/27 10:54:28;;;;;;;16.88;9.63;;;;;;;1.86;60.24;98015.59;5083509;28;20048;-71
2023/12/27 10:57:00;;;;;;;17.45;10.02;;;;;;;1.96;60.43;98036.88;5073451;28;20048;-66
2023/12/27 10:59:27;;;;;;;15.00;9.55;;;;;;;1.94;60.68;98033.50;5092333;28;20352;-66
2023/12/27 11:01:54;;;;;;;14.63;8.85;;;;;;;1.70;60.19;98010.59;5090913;28;20031;-65
2023/12/27 11:04:22;;;;;;;13.57;8.85;;;;;;;1.96;59.74;98036.88;5091409;28;20024;-67
2023/12/27 11:06:48;;;;;;;14.52;8.23;;;;;;;1.99;59.82;98050.66;5090151;28;20123;-67
2023/12/27 11:09:14;;;;;;;14.45;7.82;;;;;;;2.01;59.78;98051.38;5086835;28;20107;-66
2023/12/27 11:11:40;;;;;;;13.13;7.78;;;;;;;1.82;59.58;98020.25;5090787;28;20039;-67
2023/12/27 11:14:09;;;;;;;15.65;8.60;;;;;;;1.99;59.99;98055.13;5090389;28;20039;-67
2023/12/27 11:16:37;;;;;;;12.07;8.00;;;;;;;1.96;59.84;98047.44;5092013;28;20093;-67
2023/12/27 11:19:07;;;;;;;12.02;7.78;;;;;;;1.96;59.94;98050.06;5091709;28;20035;-68
2023/12/27 11:21:34;;;;;;;13.70;8.23;;;;;;;1.98;60.03;98058.72;5087466;28;20436;-65
2023/12/27 11:24:00;;;;;;;15.07;8.40;;;;;;;1.81;59.96;98044.94;5086752;28;20172;-66
2023/12/27 11:26:26;;;;;;;18.77;11.45;;;;;;;1.90;60.74;98056.63;5091676;28;20039;-67